createdAt,value
2018-05-31T00:00:37.626Z,80.04
2018-05-31T00:03:06.142Z,80.21
2018-05-31T00:05:34.715Z,80.74
2018-05-31T00:08:03.445Z,80.69
2018-05-31T00:10:32.087Z,80.95
2018-05-31T00:13:00.590Z,80.71
2018-05-31T00:15:29.471Z,81.34
2018-05-31T00:17:58.246Z,79.88
2018-05-31T00:20:26.951Z,79.66
2018-05-31T00:22:55.383Z,79.45
2018-05-31T00:25:24.049Z,79.29
2018-05-31T00:27:52.558Z,79.93
2018-05-31T00:30:21.043Z,80.32
2018-05-31T00:32:49.609Z,80.07
2018-05-31T00:35:18.306Z,80.41
2018-05-31T00:37:46.754Z,80.23
2018-05-31T00:40:15.373Z,79.44
2018-05-31T00:42:43.790Z,79.77
2018-05-31T00:45:12.315Z,79.89
2018-05-31T00:47:40.779Z,79.17
2018-05-31T00:50:09.362Z,78.24
2018-05-31T00:52:38.170Z,77.87
2018-05-31T00:55:06.864Z,78.16
2018-05-31T00:57:35.346Z,77.68
2018-05-31T01:00:04.114Z,78.74
2018-05-31T01:02:32.618Z,76.49
2018-05-31T01:05:01.176Z,77.42
2018-05-31T01:07:29.670Z,77.88
2018-05-31T01:09:58.367Z,77.63
2018-05-31T01:12:26.841Z,77.57
2018-05-31T01:14:55.507Z,77.17
2018-05-31T01:17:23.989Z,77.85
2018-05-31T01:19:52.568Z,77.30
2018-05-31T01:22:21.083Z,77.33
2018-05-31T01:24:49.735Z,77.66
2018-05-31T01:27:18.535Z,77.56
2018-05-31T01:29:47.000Z,77.31
2018-05-31T01:32:15.718Z,77.70
2018-05-31T01:34:44.184Z,78.57
2018-05-31T01:37:12.667Z,78.71
2018-05-31T01:39:41.432Z,78.03
2018-05-31T01:42:10.167Z,78.38
2018-05-31T01:44:38.932Z,78.93
2018-05-31T01:47:07.467Z,78.26
2018-05-31T01:49:35.994Z,78.67
2018-05-31T01:52:04.595Z,78.80
2018-05-31T01:54:33.683Z,78.96
2018-05-31T01:57:02.363Z,79.11
2018-05-31T01:59:31.060Z,79.70
2018-05-31T02:01:59.599Z,79.26
2018-05-31T02:04:28.321Z,79.69
2018-05-31T02:06:56.780Z,79.97
2018-05-31T02:09:25.370Z,79.94
2018-05-31T02:11:54.222Z,80.21
2018-05-31T02:14:22.696Z,80.70
2018-05-31T02:16:51.251Z,80.53
2018-05-31T02:19:19.812Z,80.66
2018-05-31T02:21:48.524Z,80.66
2018-05-31T02:24:17.160Z,80.86
2018-05-31T02:26:45.646Z,81.61
2018-05-31T02:29:14.456Z,81.62
2018-05-31T02:31:43.190Z,82.17
2018-05-31T02:34:11.686Z,82.25
2018-05-31T02:36:40.337Z,82.53
2018-05-31T02:39:08.997Z,83.19
2018-05-31T02:41:37.811Z,83.37
2018-05-31T02:44:06.593Z,82.71
2018-05-31T02:46:35.226Z,82.58
2018-05-31T02:49:03.879Z,82.71
2018-05-31T02:51:32.721Z,81.39
2018-05-31T02:54:01.198Z,81.06
2018-05-31T02:56:29.687Z,82.27
2018-05-31T02:58:58.164Z,83.55
2018-05-31T03:01:26.646Z,83.69
2018-05-31T03:03:55.944Z,84.15
2018-05-31T03:06:24.593Z,83.72
2018-05-31T03:08:53.057Z,83.48
2018-05-31T03:11:21.747Z,83.45
2018-05-31T03:13:50.438Z,83.44
2018-05-31T03:16:19.076Z,84.73
2018-05-31T03:18:47.583Z,84.64
2018-05-31T03:21:16.234Z,83.51
2018-05-31T03:23:44.829Z,84.25
2018-05-31T03:26:13.283Z,84.22
2018-05-31T03:28:41.767Z,84.33
2018-05-31T03:31:10.292Z,84.69
2018-05-31T03:33:38.727Z,84.80
2018-05-31T03:36:07.281Z,84.67
2018-05-31T03:38:35.765Z,84.73
2018-05-31T03:41:04.208Z,84.08
2018-05-31T03:43:32.652Z,84.25
2018-05-31T03:46:01.175Z,84.41
2018-05-31T03:48:29.618Z,84.11
2018-05-31T03:50:58.215Z,84.01
2018-05-31T03:53:26.806Z,83.30
2018-05-31T03:55:55.280Z,83.46
2018-05-31T03:58:23.834Z,83.66
2018-05-31T04:03:48.384Z,84.06
2018-05-31T04:06:18.690Z,83.80
2018-05-31T04:08:47.762Z,83.76
2018-05-31T04:11:16.535Z,82.70
2018-05-31T04:13:45.183Z,81.70
2018-05-31T04:16:15.959Z,78.65
2018-05-31T04:18:44.726Z,77.52
2018-05-31T04:21:13.581Z,77.83
2018-05-31T04:23:42.226Z,78.16
2018-05-31T04:26:11.011Z,76.58
2018-05-31T04:28:39.676Z,77.49
2018-05-31T04:31:08.936Z,78.16
2018-05-31T04:33:37.659Z,76.61
2018-05-31T04:36:06.255Z,74.58
2018-05-31T04:38:35.088Z,74.24
2018-05-31T04:41:04.199Z,75.46
2018-05-31T04:43:33.078Z,75.08
2018-05-31T04:46:01.874Z,75.58
2018-05-31T04:48:30.522Z,74.23
2018-05-31T04:50:59.322Z,75.63
2018-05-31T04:53:28.587Z,76.85
2018-05-31T04:55:58.200Z,76.39
2018-05-31T04:58:26.976Z,75.99
2018-05-31T05:00:56.303Z,76.15
2018-05-31T05:03:26.627Z,75.38
2018-05-31T05:05:55.747Z,74.58
2018-05-31T05:08:24.563Z,73.96
2018-05-31T05:10:53.163Z,75.36
2018-05-31T05:13:21.956Z,73.21
2018-05-31T05:15:50.905Z,73.00
2018-05-31T05:18:19.516Z,71.67
2018-05-31T05:20:49.029Z,72.87
2018-05-31T05:23:18.148Z,70.02
2018-05-31T05:25:46.964Z,70.99
2018-05-31T05:28:18.555Z,70.74
2018-05-31T05:30:47.527Z,70.44
2018-05-31T05:33:16.320Z,70.45
2018-05-31T05:35:45.028Z,70.43
2018-05-31T05:38:13.687Z,71.04
2018-05-31T05:40:42.643Z,70.01
2018-05-31T05:43:11.294Z,69.59
2018-05-31T05:45:40.211Z,69.92
2018-05-31T05:48:09.036Z,69.14
2018-05-31T05:50:37.719Z,68.22
2018-05-31T05:53:06.356Z,67.08
2018-05-31T05:55:37.145Z,66.96
2018-05-31T05:58:05.789Z,66.89
2018-05-31T06:00:34.829Z,66.19
2018-05-31T06:03:04.238Z,65.17
2018-05-31T06:05:32.943Z,62.70
2018-05-31T06:08:01.675Z,64.24
2018-05-31T06:10:30.292Z,63.54
2018-05-31T06:12:59.173Z,61.56
2018-05-31T06:15:28.036Z,62.01
2018-05-31T06:17:56.735Z,62.61
2018-05-31T06:20:32.267Z,61.25
2018-05-31T06:23:01.222Z,60.64
2018-05-31T06:25:30.289Z,59.58
2018-05-31T06:27:59.017Z,59.74
2018-05-31T06:30:28.704Z,60.02
2018-05-31T06:32:57.394Z,59.53
2018-05-31T06:35:26.135Z,59.64
2018-05-31T06:37:54.878Z,58.97
2018-05-31T06:40:23.508Z,58.07
2018-05-31T06:42:52.289Z,57.80
2018-05-31T06:45:21.307Z,57.30
2018-05-31T06:47:50.042Z,56.87
2018-05-31T06:50:18.905Z,57.43
2018-05-31T06:53:50.841Z,55.74
2018-05-31T06:56:19.811Z,55.52
2018-05-31T06:58:48.723Z,55.50
2018-05-31T07:01:17.751Z,54.78
2018-05-31T07:03:46.587Z,53.94
2018-05-31T07:06:15.581Z,53.48
2018-05-31T07:08:44.387Z,53.96
2018-05-31T07:11:13.817Z,54.02
2018-05-31T07:13:42.808Z,53.93
2018-05-31T07:16:11.452Z,54.38
2018-05-31T07:18:40.063Z,53.03
2018-05-31T07:21:08.943Z,52.32
2018-05-31T07:23:37.828Z,51.88
2018-05-31T07:26:06.734Z,53.26
2018-05-31T07:28:35.619Z,53.32
2018-05-31T07:31:04.507Z,53.56
2018-05-31T07:33:33.246Z,51.74
2018-05-31T07:36:02.075Z,51.18
2018-05-31T07:38:31.532Z,50.45
2018-05-31T07:41:00.655Z,50.34
2018-05-31T07:43:30.238Z,50.09
2018-05-31T07:45:59.585Z,49.49
2018-05-31T07:48:29.196Z,49.28
2018-05-31T07:51:01.226Z,49.65
2018-05-31T07:53:32.403Z,50.34
2018-05-31T07:56:01.194Z,49.66
2018-05-31T07:58:32.327Z,48.55
2018-05-31T08:01:02.069Z,48.94
2018-05-31T08:03:30.855Z,49.10
2018-05-31T08:06:00.202Z,47.89
2018-05-31T08:08:29.148Z,49.11
2018-05-31T08:10:58.885Z,47.95
2018-05-31T08:13:27.646Z,47.33
2018-05-31T08:15:57.643Z,47.14
2018-05-31T08:18:26.367Z,47.77
2018-05-31T08:21:02.154Z,46.32
2018-05-31T08:23:30.783Z,46.57
2018-05-31T08:25:59.480Z,46.12
2018-05-31T08:28:28.451Z,45.77
2018-05-31T08:30:57.419Z,45.56
2018-05-31T08:33:26.382Z,45.96
2018-05-31T08:35:55.174Z,45.84
2018-05-31T08:38:24.895Z,46.12
2018-05-31T08:40:54.035Z,45.54
2018-05-31T08:43:23.319Z,45.21
2018-05-31T08:45:52.140Z,45.12
2018-05-31T08:48:21.066Z,44.70
2018-05-31T08:50:49.853Z,45.71
2018-05-31T08:53:18.711Z,44.42
2018-05-31T08:55:47.375Z,44.28
2018-05-31T08:58:16.562Z,45.10
2018-05-31T09:00:45.815Z,45.09
2018-05-31T09:03:14.535Z,45.00
2018-05-31T09:05:43.350Z,46.29
2018-05-31T09:08:12.135Z,44.83
2018-05-31T09:10:41.098Z,44.45
2018-05-31T09:13:09.919Z,44.51
2018-05-31T09:15:39.171Z,43.85
2018-05-31T09:18:08.113Z,43.92
2018-05-31T09:20:36.907Z,43.40
2018-05-31T09:23:05.556Z,43.48
2018-05-31T09:25:34.268Z,43.22
2018-05-31T09:28:02.995Z,43.47
2018-05-31T09:30:32.284Z,42.47
2018-05-31T09:33:00.998Z,42.08
2018-05-31T09:35:29.816Z,40.72
2018-05-31T09:37:58.409Z,40.98
2018-05-31T09:40:27.087Z,40.80
2018-05-31T09:42:56.118Z,42.24
2018-05-31T09:45:24.720Z,41.65
2018-05-31T09:47:53.326Z,41.42
2018-05-31T09:50:22.476Z,41.50
2018-05-31T09:52:51.115Z,39.24
2018-05-31T09:55:20.755Z,37.88
2018-05-31T09:57:49.706Z,38.64
2018-05-31T10:00:18.328Z,39.64
2018-05-31T10:02:48.285Z,38.02
2018-05-31T10:05:17.104Z,39.54
2018-05-31T10:07:45.812Z,39.79
2018-05-31T10:10:14.875Z,40.21
2018-05-31T10:12:43.635Z,39.11
2018-05-31T10:15:12.533Z,39.09
2018-05-31T10:17:41.359Z,39.64
2018-05-31T10:20:11.226Z,38.38
2018-05-31T10:22:40.519Z,38.47
2018-05-31T10:25:09.694Z,38.74
2018-05-31T10:27:38.596Z,38.16
2018-05-31T10:30:07.610Z,38.50
2018-05-31T10:32:36.351Z,37.56
2018-05-31T10:35:05.572Z,34.86
2018-05-31T10:37:34.366Z,35.14
2018-05-31T10:40:03.274Z,35.14
2018-05-31T10:42:31.911Z,34.44
2018-05-31T10:45:01.079Z,34.13
2018-05-31T10:47:29.929Z,33.79
2018-05-31T10:49:58.612Z,33.81
2018-05-31T10:52:27.507Z,33.82
2018-05-31T10:54:56.246Z,32.39
2018-05-31T10:57:25.179Z,33.82
2018-05-31T10:59:54.070Z,33.42
2018-05-31T11:02:23.259Z,32.01
2018-05-31T11:04:51.982Z,32.39
2018-05-31T11:07:20.661Z,31.41
2018-05-31T11:09:49.467Z,31.97
2018-05-31T11:12:18.471Z,30.73
2018-05-31T11:14:47.367Z,31.11
2018-05-31T11:17:16.419Z,30.35
2018-05-31T11:19:46.067Z,29.02
2018-05-31T11:22:14.869Z,28.45
2018-05-31T11:24:43.880Z,29.43
2018-05-31T11:27:12.722Z,28.81
2018-05-31T11:29:41.785Z,29.26
2018-05-31T11:32:10.647Z,30.04
2018-05-31T11:34:39.728Z,28.98
2018-05-31T11:37:08.666Z,28.59
2018-05-31T11:39:37.436Z,27.53
2018-05-31T11:42:06.515Z,27.48
2018-05-31T11:44:35.351Z,29.11
2018-05-31T11:47:04.223Z,29.68
2018-05-31T11:49:33.332Z,28.06
2018-05-31T11:52:02.017Z,27.95
2018-05-31T11:54:30.762Z,26.39
2018-05-31T11:56:59.788Z,26.77
2018-05-31T11:59:30.060Z,27.17
2018-05-31T12:01:59.383Z,26.93
2018-05-31T12:04:33.981Z,24.98
2018-05-31T12:07:02.653Z,25.89
2018-05-31T12:09:31.232Z,26.01
2018-05-31T12:11:59.910Z,23.21
2018-05-31T12:14:28.579Z,24.34
2018-05-31T12:16:57.383Z,25.29
2018-05-31T12:19:26.195Z,25.57
2018-05-31T12:21:55.124Z,24.99
2018-05-31T12:24:23.776Z,25.87
2018-05-31T12:26:52.652Z,26.36
2018-05-31T12:29:21.273Z,25.64
2018-05-31T12:31:50.161Z,24.82
2018-05-31T12:34:18.831Z,24.38
2018-05-31T12:36:47.868Z,27.26
2018-05-31T12:39:16.507Z,25.90
2018-05-31T12:41:45.192Z,28.39
2018-05-31T12:44:13.832Z,27.29
2018-05-31T12:46:42.699Z,26.64
2018-05-31T12:49:11.435Z,28.81
2018-05-31T12:51:40.262Z,30.42
2018-05-31T12:54:09.010Z,32.25
2018-05-31T12:56:37.807Z,30.43
2018-05-31T12:59:06.495Z,30.24
2018-05-31T13:01:35.219Z,25.13
2018-05-31T13:04:03.942Z,24.41
2018-05-31T13:06:32.631Z,26.50
2018-05-31T13:09:01.298Z,28.40
2018-05-31T13:11:29.964Z,26.03
2018-05-31T13:13:58.614Z,24.12
2018-05-31T13:16:27.391Z,24.43
2018-05-31T13:18:56.009Z,22.97
2018-05-31T13:21:24.753Z,23.22
2018-05-31T13:23:53.417Z,21.75
2018-05-31T13:26:22.220Z,22.59
2018-05-31T13:28:50.896Z,26.07
2018-05-31T13:31:19.978Z,23.17
2018-05-31T13:33:48.620Z,22.33
2018-05-31T13:36:17.699Z,25.96
2018-05-31T13:38:46.354Z,26.77
2018-05-31T13:41:14.985Z,29.66
2018-05-31T13:43:43.780Z,30.22
2018-05-31T13:46:12.484Z,31.26
2018-05-31T13:48:41.098Z,31.42
2018-05-31T13:51:09.723Z,29.77
2018-05-31T13:53:39.123Z,25.65
2018-05-31T13:56:09.207Z,24.65
2018-05-31T13:58:45.452Z,23.64
2018-05-31T14:01:14.131Z,28.19
2018-05-31T14:03:45.367Z,30.00
2018-05-31T14:06:16.226Z,30.61
2018-05-31T14:08:45.399Z,31.69
2018-05-31T14:11:15.504Z,31.56
2018-05-31T14:13:48.007Z,31.08
2018-05-31T14:16:17.901Z,27.02
2018-05-31T14:18:50.788Z,25.88
2018-05-31T14:21:19.574Z,31.08
2018-05-31T14:23:48.506Z,30.78
2018-05-31T14:26:20.737Z,30.28
2018-05-31T14:28:50.458Z,23.79
2018-05-31T14:31:21.322Z,23.25
2018-05-31T14:33:51.034Z,22.84
2018-05-31T14:36:19.743Z,22.23
2018-05-31T14:38:49.216Z,23.07
2018-05-31T14:41:18.311Z,24.62
2018-05-31T14:43:47.044Z,25.14
2018-05-31T14:46:15.739Z,27.89
2018-05-31T14:48:44.367Z,28.94
2018-05-31T14:51:13.197Z,28.37
2018-05-31T14:53:43.007Z,27.19
2018-05-31T14:56:11.754Z,24.25
2018-05-31T14:58:40.442Z,27.68
2018-05-31T15:01:09.736Z,29.08
2018-05-31T15:03:38.587Z,28.13
2018-05-31T15:06:07.840Z,28.59
2018-05-31T15:08:36.542Z,29.08
2018-05-31T15:11:05.419Z,29.46
2018-05-31T15:13:34.317Z,27.84
2018-05-31T15:16:03.845Z,27.72
2018-05-31T15:18:32.675Z,30.21
2018-05-31T15:21:02.443Z,29.69
2018-05-31T15:23:31.312Z,30.61
2018-05-31T15:26:00.240Z,31.70
2018-05-31T15:28:29.020Z,31.50
2018-05-31T15:30:58.059Z,32.46
2018-05-31T15:33:27.377Z,33.29
2018-05-31T15:35:56.333Z,32.63
2018-05-31T15:38:25.501Z,32.52
2018-05-31T15:40:54.212Z,31.59
2018-05-31T15:43:23.360Z,29.88
2018-05-31T15:45:52.036Z,30.49
2018-05-31T15:48:20.924Z,31.93
2018-05-31T15:50:49.608Z,32.68
2018-05-31T15:53:18.291Z,32.45
2018-05-31T15:55:46.940Z,30.76
2018-05-31T15:58:16.109Z,31.47
2018-05-31T16:00:44.884Z,32.84
2018-05-31T16:03:13.879Z,32.55
2018-05-31T16:05:43.741Z,28.45
2018-05-31T16:08:12.815Z,31.22
2018-05-31T16:10:42.400Z,31.30
2018-05-31T16:13:11.503Z,33.48
2018-05-31T16:15:41.810Z,32.82
2018-05-31T16:18:10.903Z,34.10
2018-05-31T16:20:40.956Z,32.47
2018-05-31T16:23:10.209Z,33.36
2018-05-31T16:25:39.409Z,33.55
2018-05-31T16:28:08.529Z,35.04
2018-05-31T16:30:37.332Z,35.46
2018-05-31T16:33:06.242Z,36.10
2018-05-31T16:35:35.439Z,34.85
2018-05-31T16:38:04.316Z,34.77
2018-05-31T16:40:33.183Z,35.88
2018-05-31T16:43:02.011Z,35.78
2018-05-31T16:45:30.739Z,37.19
2018-05-31T16:47:59.410Z,36.57
2018-05-31T16:50:28.332Z,36.85
2018-05-31T16:52:57.166Z,37.14
2018-05-31T16:55:26.489Z,37.09
2018-05-31T16:57:56.417Z,37.64
2018-05-31T17:00:25.313Z,38.11
2018-05-31T17:02:54.331Z,37.40
2018-05-31T17:05:23.282Z,38.41
2018-05-31T17:07:52.118Z,38.70
2018-05-31T17:10:20.836Z,38.29
2018-05-31T17:12:50.922Z,38.75
2018-05-31T17:15:20.745Z,38.54
2018-05-31T17:17:49.523Z,38.93
2018-05-31T17:20:18.175Z,39.27
2018-05-31T17:22:47.713Z,38.96
2018-05-31T17:25:16.418Z,39.24
2018-05-31T17:27:45.460Z,39.21
2018-05-31T17:30:14.071Z,40.62
2018-05-31T17:32:43.389Z,40.38
2018-05-31T17:35:12.210Z,41.99
2018-05-31T17:37:41.200Z,41.29
2018-05-31T17:40:10.366Z,40.75
2018-05-31T17:42:39.111Z,41.45
2018-05-31T17:45:08.013Z,42.61
2018-05-31T17:47:36.900Z,45.26
2018-05-31T17:50:05.521Z,43.61
2018-05-31T17:52:34.379Z,44.11
2018-05-31T17:55:03.044Z,44.75
2018-05-31T17:57:31.755Z,44.20
2018-05-31T18:00:00.593Z,44.59
2018-05-31T18:02:30.027Z,45.04
2018-05-31T18:04:59.308Z,45.72
2018-05-31T18:07:30.277Z,46.92
2018-05-31T18:10:00.056Z,48.41
2018-05-31T18:12:29.095Z,46.73
2018-05-31T18:14:58.207Z,46.78
2018-05-31T18:17:27.063Z,49.01
2018-05-31T18:19:56.275Z,46.94
2018-05-31T18:22:25.396Z,46.62
2018-05-31T18:24:54.132Z,46.74
2018-05-31T18:27:23.038Z,46.75
2018-05-31T18:29:52.127Z,46.71
2018-05-31T18:32:21.316Z,46.26
2018-05-31T18:34:50.695Z,46.57
2018-05-31T18:37:19.645Z,47.30
2018-05-31T18:39:48.480Z,48.59
2018-05-31T18:42:17.516Z,47.12
2018-05-31T18:44:47.167Z,48.14
2018-05-31T18:47:16.217Z,50.03
2018-05-31T18:49:45.256Z,50.11
2018-05-31T18:52:14.811Z,51.64
2018-05-31T18:54:43.897Z,51.20
2018-05-31T18:57:13.623Z,50.43
2018-05-31T18:59:43.447Z,49.52
2018-05-31T19:02:12.699Z,48.86
2018-05-31T19:04:41.702Z,52.14
2018-05-31T19:07:10.539Z,48.91
2018-05-31T19:09:40.564Z,50.50
2018-05-31T19:12:09.538Z,50.60
2018-05-31T19:14:38.429Z,49.19
2018-05-31T19:17:07.411Z,49.56
2018-05-31T19:19:56.032Z,49.49
2018-05-31T19:22:30.133Z,47.68
2018-05-31T19:25:06.197Z,49.15
2018-05-31T19:27:34.975Z,47.92
2018-05-31T19:30:09.284Z,48.10
2018-05-31T19:32:38.394Z,47.49
2018-05-31T19:35:11.668Z,47.53
2018-05-31T19:37:42.123Z,47.40
2018-05-31T19:40:12.176Z,46.22
2018-05-31T19:42:47.967Z,45.62
2018-05-31T19:45:16.798Z,46.63
2018-05-31T19:47:45.660Z,47.46
2018-05-31T19:50:14.791Z,46.64
2018-05-31T19:52:48.673Z,46.54
2018-05-31T19:55:17.981Z,47.07
2018-05-31T19:57:51.229Z,47.45
2018-05-31T20:00:27.978Z,47.23
2018-05-31T20:03:32.915Z,47.55
2018-05-31T20:06:02.233Z,47.88
2018-05-31T20:08:31.186Z,47.70
2018-05-31T20:11:01.021Z,48.31
2018-05-31T20:13:31.057Z,48.47
2018-05-31T20:16:00.568Z,48.54
2018-05-31T20:18:29.721Z,48.86
2018-05-31T20:20:58.660Z,48.79
2018-05-31T20:23:27.563Z,48.78
2018-05-31T20:25:59.216Z,49.43
2018-05-31T20:28:28.547Z,49.81
2018-05-31T20:30:58.863Z,49.66
2018-05-31T20:33:27.788Z,50.04
2018-05-31T20:35:56.648Z,51.09
2018-05-31T20:38:27.177Z,49.50
2018-05-31T20:40:57.737Z,49.96
2018-05-31T20:43:26.859Z,49.71
2018-05-31T20:45:55.834Z,48.74
2018-05-31T20:48:24.586Z,50.20
2018-05-31T20:50:53.602Z,49.89
2018-05-31T20:53:22.372Z,49.92
2018-05-31T20:55:51.503Z,49.58
2018-05-31T20:58:20.234Z,49.79
2018-05-31T21:00:49.523Z,49.58
2018-05-31T21:03:18.479Z,50.20
2018-05-31T21:05:57.436Z,50.69
2018-05-31T21:08:26.996Z,50.45
2018-05-31T21:10:56.693Z,50.21
2018-05-31T21:13:26.641Z,50.77
2018-05-31T21:15:57.639Z,51.00
2018-05-31T21:18:26.810Z,51.05
2018-05-31T21:20:55.675Z,51.92
2018-05-31T21:23:25.587Z,51.34
2018-05-31T21:25:54.628Z,52.17
2018-05-31T21:28:23.356Z,52.43
2018-05-31T21:30:52.385Z,52.35
2018-05-31T21:33:21.740Z,52.47
2018-05-31T21:35:52.768Z,54.63
2018-05-31T21:38:24.172Z,53.08
2018-05-31T21:40:54.447Z,54.19
2018-05-31T21:43:26.414Z,53.72
2018-05-31T21:45:58.246Z,53.50
2018-05-31T21:48:27.509Z,54.35
2018-05-31T21:50:57.268Z,54.99
2018-05-31T21:53:26.435Z,55.75
2018-05-31T21:55:55.408Z,56.66
2018-05-31T21:58:24.448Z,55.88
2018-05-31T22:00:56.127Z,56.43
2018-05-31T22:03:25.033Z,56.41
2018-05-31T22:08:31.260Z,57.14
2018-05-31T22:11:00.759Z,58.00
2018-05-31T22:13:29.874Z,58.36
2018-05-31T22:15:58.806Z,57.79
2018-05-31T22:18:27.425Z,59.06
2018-05-31T22:20:56.165Z,58.43
2018-05-31T22:23:25.427Z,60.54
2018-05-31T22:25:55.407Z,58.42
2018-05-31T22:28:24.644Z,58.15
2018-05-31T22:30:53.508Z,58.90
2018-05-31T22:33:22.211Z,58.69
2018-05-31T22:35:50.846Z,59.92
2018-05-31T22:38:19.575Z,61.11
2018-05-31T22:40:48.916Z,59.55
2018-05-31T22:43:17.521Z,60.56
2018-05-31T22:45:46.246Z,61.44
2018-05-31T22:48:14.846Z,60.35
2018-05-31T22:50:43.816Z,61.02
2018-05-31T22:53:12.715Z,60.41
2018-05-31T22:55:41.799Z,61.86
2018-05-31T22:58:13.546Z,61.53
2018-05-31T23:00:42.544Z,62.23
2018-05-31T23:03:11.810Z,61.17
2018-05-31T23:05:40.535Z,61.09
2018-05-31T23:08:09.722Z,63.58
2018-05-31T23:10:38.426Z,60.80
2018-05-31T23:13:07.004Z,62.51
2018-05-31T23:15:36.075Z,60.76
2018-05-31T23:18:04.907Z,59.93
2018-05-31T23:20:33.560Z,60.10
2018-05-31T23:23:02.135Z,59.15
2018-05-31T23:25:31.012Z,59.58
2018-05-31T23:27:59.708Z,60.97
2018-05-31T23:30:29.716Z,60.81
2018-05-31T23:32:58.552Z,64.05
2018-05-31T23:35:27.540Z,61.27
2018-05-31T23:38:00.850Z,60.31
2018-05-31T23:40:30.672Z,61.28
2018-05-31T23:43:00.540Z,60.47
2018-05-31T23:45:30.272Z,60.08
2018-05-31T23:47:59.999Z,59.74
2018-05-31T23:50:29.722Z,58.79
2018-05-31T23:52:58.484Z,59.07
2018-05-31T23:55:27.495Z,60.04
2018-05-31T23:57:56.346Z,58.84
